sensor_id;sensor_type;location;lat;lon;timestamp;temperature;humidity
46816;DHT22;32787;53.316;8.670;2022-07-22T00:00:27;15.80;94.90
46816;DHT22;32787;53.316;8.670;2022-07-22T00:02:52;15.80;94.80
46816;DHT22;32787;53.316;8.670;2022-07-22T00:05:18;15.80;94.70
46816;DHT22;32787;53.316;8.670;2022-07-22T00:07:44;15.80;94.80
46816;DHT22;32787;53.316;8.670;2022-07-22T00:10:10;15.70;94.70
46816;DHT22;32787;53.316;8.670;2022-07-22T00:12:36;15.90;94.80
46816;DHT22;32787;53.316;8.670;2022-07-22T00:15:03;15.90;94.80
46816;DHT22;32787;53.316;8.670;2022-07-22T00:17:29;15.70;94.70
46816;DHT22;32787;53.316;8.670;2022-07-22T00:19:54;15.80;94.70
46816;DHT22;32787;53.316;8.670;2022-07-22T00:22:20;15.80;94.80
46816;DHT22;32787;53.316;8.670;2022-07-22T00:24:46;15.80;94.70
46816;DHT22;32787;53.316;8.670;2022-07-22T00:27:12;15.80;94.50
46816;DHT22;32787;53.316;8.670;2022-07-22T00:29:37;15.70;94.50
46816;DHT22;32787;53.316;8.670;2022-07-22T00:32:03;15.80;94.40
46816;DHT22;32787;53.316;8.670;2022-07-22T00:34:29;15.80;94.40
46816;DHT22;32787;53.316;8.670;2022-07-22T00:36:54;15.70;94.40
46816;DHT22;32787;53.316;8.670;2022-07-22T00:39:20;15.50;94.40
46816;DHT22;32787;53.316;8.670;2022-07-22T00:41:47;15.60;94.50
46816;DHT22;32787;53.316;8.670;2022-07-22T00:44:13;15.70;94.60
46816;DHT22;32787;53.316;8.670;2022-07-22T00:46:39;15.70;94.40
46816;DHT22;32787;53.316;8.670;2022-07-22T00:49:06;15.70;94.40
46816;DHT22;32787;53.316;8.670;2022-07-22T00:51:32;15.70;94.30
46816;DHT22;32787;53.316;8.670;2022-07-22T00:53:59;15.70;94.20
46816;DHT22;32787;53.316;8.670;2022-07-22T00:56:25;15.70;94.10
46816;DHT22;32787;53.316;8.670;2022-07-22T00:58:53;15.80;94.30
46816;DHT22;32787;53.316;8.670;2022-07-22T01:01:19;15.80;94.20
46816;DHT22;32787;53.316;8.670;2022-07-22T01:03:44;15.90;94.10
46816;DHT22;32787;53.316;8.670;2022-07-22T01:06:10;15.80;93.90
46816;DHT22;32787;53.316;8.670;2022-07-22T01:08:37;15.80;93.80
46816;DHT22;32787;53.316;8.670;2022-07-22T01:11:15;15.80;93.70
46816;DHT22;32787;53.316;8.670;2022-07-22T01:13:41;15.70;93.80
46816;DHT22;32787;53.316;8.670;2022-07-22T01:16:08;15.60;93.90
46816;DHT22;32787;53.316;8.670;2022-07-22T01:18:36;15.60;93.90
46816;DHT22;32787;53.316;8.670;2022-07-22T01:21:02;15.50;93.70
46816;DHT22;32787;53.316;8.670;2022-07-22T01:23:28;15.50;93.60
46816;DHT22;32787;53.316;8.670;2022-07-22T01:25:54;15.40;93.60
46816;DHT22;32787;53.316;8.670;2022-07-22T01:28:20;15.40;93.80
46816;DHT22;32787;53.316;8.670;2022-07-22T01:30:45;15.40;93.90
46816;DHT22;32787;53.316;8.670;2022-07-22T01:33:11;15.50;93.90
46816;DHT22;32787;53.316;8.670;2022-07-22T01:35:37;15.40;93.70
46816;DHT22;32787;53.316;8.670;2022-07-22T01:38:02;15.50;94.00
46816;DHT22;32787;53.316;8.670;2022-07-22T01:40:28;15.50;93.70
46816;DHT22;32787;53.316;8.670;2022-07-22T01:42:54;15.60;93.70
46816;DHT22;32787;53.316;8.670;2022-07-22T01:45:19;15.50;93.50
46816;DHT22;32787;53.316;8.670;2022-07-22T01:47:45;15.40;93.60
46816;DHT22;32787;53.316;8.670;2022-07-22T01:50:11;15.50;93.80
46816;DHT22;32787;53.316;8.670;2022-07-22T01:52:39;15.40;93.70
46816;DHT22;32787;53.316;8.670;2022-07-22T01:55:06;15.40;93.80
46816;DHT22;32787;53.316;8.670;2022-07-22T01:57:33;15.40;93.80
46816;DHT22;32787;53.316;8.670;2022-07-22T01:59:59;15.50;93.90
46816;DHT22;32787;53.316;8.670;2022-07-22T02:02:24;15.40;93.90
46816;DHT22;32787;53.316;8.670;2022-07-22T02:04:50;15.30;93.80
46816;DHT22;32787;53.316;8.670;2022-07-22T02:07:16;15.30;94.00
46816;DHT22;32787;53.316;8.670;2022-07-22T02:09:41;15.40;94.10
46816;DHT22;32787;53.316;8.670;2022-07-22T02:12:07;15.40;94.10
46816;DHT22;32787;53.316;8.670;2022-07-22T02:14:34;15.50;94.00
46816;DHT22;32787;53.316;8.670;2022-07-22T02:16:59;15.60;94.00
46816;DHT22;32787;53.316;8.670;2022-07-22T02:19:25;15.50;93.70
46816;DHT22;32787;53.316;8.670;2022-07-22T02:21:50;15.40;93.70
46816;DHT22;32787;53.316;8.670;2022-07-22T02:24:16;15.40;93.70
46816;DHT22;32787;53.316;8.670;2022-07-22T02:26:42;15.40;93.70
46816;DHT22;32787;53.316;8.670;2022-07-22T02:29:08;15.50;93.70
46816;DHT22;32787;53.316;8.670;2022-07-22T02:31:33;15.30;93.50
46816;DHT22;32787;53.316;8.670;2022-07-22T02:33:59;15.30;93.60
46816;DHT22;32787;53.316;8.670;2022-07-22T02:36:25;15.30;93.50
46816;DHT22;32787;53.316;8.670;2022-07-22T02:38:50;15.20;93.30
46816;DHT22;32787;53.316;8.670;2022-07-22T02:41:16;15.20;93.70
46816;DHT22;32787;53.316;8.670;2022-07-22T02:43:41;15.30;93.50
46816;DHT22;32787;53.316;8.670;2022-07-22T02:46:07;15.20;93.40
46816;DHT22;32787;53.316;8.670;2022-07-22T02:48:32;15.20;93.70
46816;DHT22;32787;53.316;8.670;2022-07-22T02:50:59;15.20;93.60
46816;DHT22;32787;53.316;8.670;2022-07-22T02:53:24;15.20;93.70
46816;DHT22;32787;53.316;8.670;2022-07-22T02:55:50;15.10;93.50
46816;DHT22;32787;53.316;8.670;2022-07-22T02:58:16;15.10;93.70
46816;DHT22;32787;53.316;8.670;2022-07-22T03:00:42;15.10;93.70
46816;DHT22;32787;53.316;8.670;2022-07-22T03:03:07;15.10;93.50
46816;DHT22;32787;53.316;8.670;2022-07-22T03:05:33;15.10;93.60
46816;DHT22;32787;53.316;8.670;2022-07-22T03:07:58;15.20;93.60
46816;DHT22;32787;53.316;8.670;2022-07-22T03:10:24;15.10;93.70
46816;DHT22;32787;53.316;8.670;2022-07-22T03:12:50;15.20;93.80
46816;DHT22;32787;53.316;8.670;2022-07-22T03:15:15;15.10;93.70
46816;DHT22;32787;53.316;8.670;2022-07-22T03:17:41;15.00;93.70
46816;DHT22;32787;53.316;8.670;2022-07-22T03:20:08;15.00;93.70
46816;DHT22;32787;53.316;8.670;2022-07-22T03:22:35;14.90;93.80
46816;DHT22;32787;53.316;8.670;2022-07-22T03:25:01;15.10;93.80
46816;DHT22;32787;53.316;8.670;2022-07-22T03:27:26;15.00;93.70
46816;DHT22;32787;53.316;8.670;2022-07-22T03:29:52;15.10;93.70
46816;DHT22;32787;53.316;8.670;2022-07-22T03:32:18;15.10;93.80
46816;DHT22;32787;53.316;8.670;2022-07-22T03:34:44;15.10;93.80
46816;DHT22;32787;53.316;8.670;2022-07-22T03:37:09;15.10;93.70
46816;DHT22;32787;53.316;8.670;2022-07-22T03:39:35;15.10;93.70
46816;DHT22;32787;53.316;8.670;2022-07-22T03:42:01;15.20;93.70
46816;DHT22;32787;53.316;8.670;2022-07-22T03:44:26;15.20;93.50
46816;DHT22;32787;53.316;8.670;2022-07-22T03:46:52;15.20;93.30
46816;DHT22;32787;53.316;8.670;2022-07-22T03:49:18;15.10;93.30
46816;DHT22;32787;53.316;8.670;2022-07-22T03:51:43;15.20;93.30
46816;DHT22;32787;53.316;8.670;2022-07-22T03:54:09;15.20;93.40
46816;DHT22;32787;53.316;8.670;2022-07-22T03:56:35;15.20;93.40
46816;DHT22;32787;53.316;8.670;2022-07-22T03:59:00;15.20;93.30
46816;DHT22;32787;53.316;8.670;2022-07-22T04:01:26;15.20;93.30
46816;DHT22;32787;53.316;8.670;2022-07-22T04:03:52;15.40;93.40
46816;DHT22;32787;53.316;8.670;2022-07-22T04:06:17;15.40;93.00
46816;DHT22;32787;53.316;8.670;2022-07-22T04:08:43;15.30;92.80
46816;DHT22;32787;53.316;8.670;2022-07-22T04:11:09;15.30;93.00
46816;DHT22;32787;53.316;8.670;2022-07-22T04:13:35;15.20;93.10
46816;DHT22;32787;53.316;8.670;2022-07-22T04:16:01;15.20;93.20
46816;DHT22;32787;53.316;8.670;2022-07-22T04:18:26;15.20;93.40
46816;DHT22;32787;53.316;8.670;2022-07-22T04:20:52;15.20;93.40
46816;DHT22;32787;53.316;8.670;2022-07-22T04:23:17;15.30;93.50
46816;DHT22;32787;53.316;8.670;2022-07-22T04:25:43;15.30;93.40
46816;DHT22;32787;53.316;8.670;2022-07-22T04:28:10;15.30;93.40
46816;DHT22;32787;53.316;8.670;2022-07-22T04:30:35;15.30;93.30
46816;DHT22;32787;53.316;8.670;2022-07-22T04:33:01;15.40;93.60
46816;DHT22;32787;53.316;8.670;2022-07-22T04:35:27;15.50;93.40
46816;DHT22;32787;53.316;8.670;2022-07-22T04:37:52;15.50;93.40
46816;DHT22;32787;53.316;8.670;2022-07-22T04:40:18;15.50;93.10
46816;DHT22;32787;53.316;8.670;2022-07-22T04:42:44;15.50;93.00
46816;DHT22;32787;53.316;8.670;2022-07-22T04:45:11;15.50;92.80
46816;DHT22;32787;53.316;8.670;2022-07-22T04:47:37;15.40;92.90
46816;DHT22;32787;53.316;8.670;2022-07-22T04:50:03;15.40;92.90
46816;DHT22;32787;53.316;8.670;2022-07-22T04:52:28;15.40;92.70
46816;DHT22;32787;53.316;8.670;2022-07-22T04:54:54;15.30;92.90
46816;DHT22;32787;53.316;8.670;2022-07-22T04:57:19;15.50;93.10
46816;DHT22;32787;53.316;8.670;2022-07-22T04:59:45;15.40;92.60
46816;DHT22;32787;53.316;8.670;2022-07-22T05:02:11;15.20;92.70
46816;DHT22;32787;53.316;8.670;2022-07-22T05:04:36;15.30;92.70
46816;DHT22;32787;53.316;8.670;2022-07-22T05:07:02;15.40;92.60
46816;DHT22;32787;53.316;8.670;2022-07-22T05:09:28;15.30;92.70
46816;DHT22;32787;53.316;8.670;2022-07-22T05:11:54;15.30;92.70
46816;DHT22;32787;53.316;8.670;2022-07-22T05:14:19;15.40;92.60
46816;DHT22;32787;53.316;8.670;2022-07-22T05:16:45;15.40;92.40
46816;DHT22;32787;53.316;8.670;2022-07-22T05:19:11;15.40;92.50
46816;DHT22;32787;53.316;8.670;2022-07-22T05:21:37;15.50;92.40
46816;DHT22;32787;53.316;8.670;2022-07-22T05:24:02;15.50;92.50
46816;DHT22;32787;53.316;8.670;2022-07-22T05:26:29;15.60;92.50
46816;DHT22;32787;53.316;8.670;2022-07-22T05:28:56;15.60;91.80
46816;DHT22;32787;53.316;8.670;2022-07-22T05:31:22;15.50;91.80
46816;DHT22;32787;53.316;8.670;2022-07-22T05:33:48;15.60;91.90
46816;DHT22;32787;53.316;8.670;2022-07-22T05:36:13;15.60;92.00
46816;DHT22;32787;53.316;8.670;2022-07-22T05:38:39;15.70;91.90
46816;DHT22;32787;53.316;8.670;2022-07-22T05:41:05;15.60;91.40
46816;DHT22;32787;53.316;8.670;2022-07-22T05:43:30;15.60;91.10
46816;DHT22;32787;53.316;8.670;2022-07-22T05:45:56;15.60;91.20
46816;DHT22;32787;53.316;8.670;2022-07-22T05:48:21;15.70;90.80
46816;DHT22;32787;53.316;8.670;2022-07-22T05:50:47;15.80;91.10
46816;DHT22;32787;53.316;8.670;2022-07-22T05:53:13;15.80;90.50
46816;DHT22;32787;53.316;8.670;2022-07-22T05:55:39;15.80;90.60
46816;DHT22;32787;53.316;8.670;2022-07-22T05:58:04;15.90;90.80
46816;DHT22;32787;53.316;8.670;2022-07-22T06:00:30;16.00;89.50
46816;DHT22;32787;53.316;8.670;2022-07-22T06:02:56;16.00;89.70
46816;DHT22;32787;53.316;8.670;2022-07-22T06:05:21;16.00;89.80
46816;DHT22;32787;53.316;8.670;2022-07-22T06:07:47;16.10;89.40
46816;DHT22;32787;53.316;8.670;2022-07-22T06:10:13;16.00;89.00
46816;DHT22;32787;53.316;8.670;2022-07-22T06:12:39;16.10;89.40
46816;DHT22;32787;53.316;8.670;2022-07-22T06:15:05;16.00;88.40
46816;DHT22;32787;53.316;8.670;2022-07-22T06:17:31;16.10;88.70
46816;DHT22;32787;53.316;8.670;2022-07-22T06:19:57;16.20;89.20
46816;DHT22;32787;53.316;8.670;2022-07-22T06:22:22;16.20;88.20
46816;DHT22;32787;53.316;8.670;2022-07-22T06:24:48;16.30;86.90
46816;DHT22;32787;53.316;8.670;2022-07-22T06:27:14;16.30;87.10
46816;DHT22;32787;53.316;8.670;2022-07-22T06:29:40;16.20;87.10
46816;DHT22;32787;53.316;8.670;2022-07-22T06:32:07;16.20;86.90
46816;DHT22;32787;53.316;8.670;2022-07-22T06:34:33;16.30;86.60
46816;DHT22;32787;53.316;8.670;2022-07-22T06:36:59;16.30;86.30
46816;DHT22;32787;53.316;8.670;2022-07-22T06:39:25;16.20;85.80
46816;DHT22;32787;53.316;8.670;2022-07-22T06:41:50;16.20;85.60
46816;DHT22;32787;53.316;8.670;2022-07-22T06:44:16;16.00;85.60
46816;DHT22;32787;53.316;8.670;2022-07-22T06:46:42;16.10;85.70
46816;DHT22;32787;53.316;8.670;2022-07-22T06:49:08;16.00;86.60
46816;DHT22;32787;53.316;8.670;2022-07-22T06:51:33;16.20;86.60
46816;DHT22;32787;53.316;8.670;2022-07-22T06:54:00;16.30;85.70
46816;DHT22;32787;53.316;8.670;2022-07-22T06:56:25;16.20;84.80
46816;DHT22;32787;53.316;8.670;2022-07-22T06:58:51;16.30;85.40
46816;DHT22;32787;53.316;8.670;2022-07-22T07:01:17;16.40;85.70
46816;DHT22;32787;53.316;8.670;2022-07-22T07:03:43;16.30;84.70
46816;DHT22;32787;53.316;8.670;2022-07-22T07:06:10;16.40;85.60
46816;DHT22;32787;53.316;8.670;2022-07-22T07:08:37;16.50;86.30
46816;DHT22;32787;53.316;8.670;2022-07-22T07:11:04;16.30;85.80
46816;DHT22;32787;53.316;8.670;2022-07-22T07:13:30;16.30;84.60
46816;DHT22;32787;53.316;8.670;2022-07-22T07:15:56;16.10;83.90
46816;DHT22;32787;53.316;8.670;2022-07-22T07:18:22;15.90;84.40
46816;DHT22;32787;53.316;8.670;2022-07-22T07:20:47;15.80;84.90
46816;DHT22;32787;53.316;8.670;2022-07-22T07:23:13;16.00;85.70
46816;DHT22;32787;53.316;8.670;2022-07-22T07:25:39;16.00;86.20
46816;DHT22;32787;53.316;8.670;2022-07-22T07:28:04;16.10;86.10
46816;DHT22;32787;53.316;8.670;2022-07-22T07:30:30;16.20;85.10
46816;DHT22;32787;53.316;8.670;2022-07-22T07:32:56;16.00;84.50
46816;DHT22;32787;53.316;8.670;2022-07-22T07:35:22;16.00;84.70
46816;DHT22;32787;53.316;8.670;2022-07-22T07:37:48;15.90;84.80
46816;DHT22;32787;53.316;8.670;2022-07-22T07:40:14;16.00;84.00
46816;DHT22;32787;53.316;8.670;2022-07-22T07:42:40;16.20;85.40
46816;DHT22;32787;53.316;8.670;2022-07-22T07:45:06;16.30;86.00
46816;DHT22;32787;53.316;8.670;2022-07-22T07:47:32;16.30;84.80
46816;DHT22;32787;53.316;8.670;2022-07-22T07:49:57;16.30;84.30
46816;DHT22;32787;53.316;8.670;2022-07-22T07:52:25;16.30;85.40
46816;DHT22;32787;53.316;8.670;2022-07-22T07:54:51;16.30;84.40
46816;DHT22;32787;53.316;8.670;2022-07-22T07:57:18;16.60;84.90
46816;DHT22;32787;53.316;8.670;2022-07-22T07:59:44;16.60;83.50
46816;DHT22;32787;53.316;8.670;2022-07-22T08:02:10;16.60;84.10
46816;DHT22;32787;53.316;8.670;2022-07-22T08:04:36;16.40;82.60
46816;DHT22;32787;53.316;8.670;2022-07-22T08:07:03;16.40;82.30
46816;DHT22;32787;53.316;8.670;2022-07-22T08:09:29;16.40;83.10
46816;DHT22;32787;53.316;8.670;2022-07-22T08:11:54;16.40;81.50
46816;DHT22;32787;53.316;8.670;2022-07-22T08:14:20;16.30;82.60
46816;DHT22;32787;53.316;8.670;2022-07-22T08:16:46;16.20;82.50
46816;DHT22;32787;53.316;8.670;2022-07-22T08:19:11;16.20;82.20
46816;DHT22;32787;53.316;8.670;2022-07-22T08:21:37;16.20;81.40
46816;DHT22;32787;53.316;8.670;2022-07-22T08:24:03;16.20;81.50
46816;DHT22;32787;53.316;8.670;2022-07-22T08:26:28;16.50;82.70
46816;DHT22;32787;53.316;8.670;2022-07-22T08:28:54;16.60;81.50
46816;DHT22;32787;53.316;8.670;2022-07-22T08:31:20;16.50;80.50
46816;DHT22;32787;53.316;8.670;2022-07-22T08:33:45;16.70;80.40
46816;DHT22;32787;53.316;8.670;2022-07-22T08:36:11;16.90;79.80
46816;DHT22;32787;53.316;8.670;2022-07-22T08:38:37;16.90;78.90
46816;DHT22;32787;53.316;8.670;2022-07-22T08:41:03;17.10;79.30
46816;DHT22;32787;53.316;8.670;2022-07-22T08:43:31;17.00;77.70
46816;DHT22;32787;53.316;8.670;2022-07-22T08:45:59;16.90;78.50
46816;DHT22;32787;53.316;8.670;2022-07-22T08:48:26;16.80;79.20
46816;DHT22;32787;53.316;8.670;2022-07-22T08:50:51;16.80;78.80
46816;DHT22;32787;53.316;8.670;2022-07-22T08:53:17;16.80;79.80
46816;DHT22;32787;53.316;8.670;2022-07-22T08:55:47;16.70;80.10
46816;DHT22;32787;53.316;8.670;2022-07-22T08:58:14;16.80;81.20
46816;DHT22;32787;53.316;8.670;2022-07-22T09:00:40;17.00;81.40
46816;DHT22;32787;53.316;8.670;2022-07-22T09:03:19;16.90;79.60
46816;DHT22;32787;53.316;8.670;2022-07-22T09:05:46;17.00;79.90
46816;DHT22;32787;53.316;8.670;2022-07-22T09:08:12;16.90;78.20
46816;DHT22;32787;53.316;8.670;2022-07-22T09:10:37;17.10;79.10
46816;DHT22;32787;53.316;8.670;2022-07-22T09:13:05;17.10;78.80
46816;DHT22;32787;53.316;8.670;2022-07-22T09:15:33;17.10;78.10
46816;DHT22;32787;53.316;8.670;2022-07-22T09:18:02;16.90;77.00
46816;DHT22;32787;53.316;8.670;2022-07-22T09:20:28;16.80;77.40
46816;DHT22;32787;53.316;8.670;2022-07-22T09:22:54;16.70;77.60
46816;DHT22;32787;53.316;8.670;2022-07-22T09:27:56;17.10;78.80
46816;DHT22;32787;53.316;8.670;2022-07-22T09:30:24;17.20;78.60
46816;DHT22;32787;53.316;8.670;2022-07-22T09:32:51;17.50;79.30
46816;DHT22;32787;53.316;8.670;2022-07-22T09:35:17;17.60;79.30
46816;DHT22;32787;53.316;8.670;2022-07-22T09:37:54;17.80;76.80
46816;DHT22;32787;53.316;8.670;2022-07-22T09:40:25;17.70;75.00
46816;DHT22;32787;53.316;8.670;2022-07-22T09:42:57;17.70;76.20
46816;DHT22;32787;53.316;8.670;2022-07-22T09:45:24;17.70;76.20
46816;DHT22;32787;53.316;8.670;2022-07-22T09:47:50;17.80;78.00
46816;DHT22;32787;53.316;8.670;2022-07-22T09:50:35;17.70;77.70
46816;DHT22;32787;53.316;8.670;2022-07-22T09:53:01;17.80;76.60
46816;DHT22;32787;53.316;8.670;2022-07-22T09:55:27;17.50;73.10
46816;DHT22;32787;53.316;8.670;2022-07-22T09:57:55;17.50;74.80
46816;DHT22;32787;53.316;8.670;2022-07-22T10:00:24;17.70;73.80
46816;DHT22;32787;53.316;8.670;2022-07-22T10:02:56;17.80;74.60
46816;DHT22;32787;53.316;8.670;2022-07-22T10:05:31;17.80;71.30
46816;DHT22;32787;53.316;8.670;2022-07-22T10:08:00;17.70;72.40
46816;DHT22;32787;53.316;8.670;2022-07-22T10:10:28;17.80;72.60
46816;DHT22;32787;53.316;8.670;2022-07-22T10:12:57;17.90;72.90
46816;DHT22;32787;53.316;8.670;2022-07-22T10:15:24;17.80;73.10
46816;DHT22;32787;53.316;8.670;2022-07-22T10:17:53;18.00;74.10
46816;DHT22;32787;53.316;8.670;2022-07-22T10:20:29;18.10;73.90
46816;DHT22;32787;53.316;8.670;2022-07-22T10:23:00;17.70;73.20
46816;DHT22;32787;53.316;8.670;2022-07-22T10:25:31;17.60;72.80
46816;DHT22;32787;53.316;8.670;2022-07-22T10:28:02;17.70;74.30
46816;DHT22;32787;53.316;8.670;2022-07-22T10:30:37;17.70;73.70
46816;DHT22;32787;53.316;8.670;2022-07-22T10:33:19;17.80;73.40
46816;DHT22;32787;53.316;8.670;2022-07-22T10:36:02;17.90;72.20
46816;DHT22;32787;53.316;8.670;2022-07-22T10:38:29;18.20;71.50
46816;DHT22;32787;53.316;8.670;2022-07-22T10:43:46;18.00;70.60
46816;DHT22;32787;53.316;8.670;2022-07-22T10:46:13;17.90;72.10
46816;DHT22;32787;53.316;8.670;2022-07-22T10:51:09;18.20;71.20
46816;DHT22;32787;53.316;8.670;2022-07-22T10:53:45;18.30;70.10
46816;DHT22;32787;53.316;8.670;2022-07-22T10:56:23;18.10;69.50
46816;DHT22;32787;53.316;8.670;2022-07-22T11:01:22;18.30;73.50
46816;DHT22;32787;53.316;8.670;2022-07-22T11:03:48;18.40;72.10
46816;DHT22;32787;53.316;8.670;2022-07-22T11:06:22;18.30;72.50
46816;DHT22;32787;53.316;8.670;2022-07-22T11:08:51;18.30;71.70
46816;DHT22;32787;53.316;8.670;2022-07-22T11:11:18;18.40;71.10
46816;DHT22;32787;53.316;8.670;2022-07-22T11:13:44;18.50;71.60
46816;DHT22;32787;53.316;8.670;2022-07-22T11:21:23;18.10;69.90
46816;DHT22;32787;53.316;8.670;2022-07-22T11:23:52;18.10;70.00
46816;DHT22;32787;53.316;8.670;2022-07-22T11:26:23;18.00;69.60
46816;DHT22;32787;53.316;8.670;2022-07-22T11:28:49;18.10;71.30
46816;DHT22;32787;53.316;8.670;2022-07-22T11:31:17;18.30;73.20
46816;DHT22;32787;53.316;8.670;2022-07-22T11:33:44;18.30;69.20
46816;DHT22;32787;53.316;8.670;2022-07-22T11:36:10;18.60;72.40
46816;DHT22;32787;53.316;8.670;2022-07-22T11:38:49;18.70;69.70
46816;DHT22;32787;53.316;8.670;2022-07-22T11:41:16;18.60;69.20
46816;DHT22;32787;53.316;8.670;2022-07-22T11:43:49;18.60;70.10
46816;DHT22;32787;53.316;8.670;2022-07-22T11:46:18;18.50;70.30
46816;DHT22;32787;53.316;8.670;2022-07-22T11:48:44;18.70;71.20
46816;DHT22;32787;53.316;8.670;2022-07-22T11:51:12;18.80;69.50
46816;DHT22;32787;53.316;8.670;2022-07-22T11:53:40;18.80;71.20
46816;DHT22;32787;53.316;8.670;2022-07-22T11:56:08;18.50;69.70
46816;DHT22;32787;53.316;8.670;2022-07-22T11:58:42;18.30;70.50
46816;DHT22;32787;53.316;8.670;2022-07-22T12:01:09;18.40;72.10
46816;DHT22;32787;53.316;8.670;2022-07-22T12:03:37;18.40;70.80
46816;DHT22;32787;53.316;8.670;2022-07-22T12:06:06;18.30;68.40
46816;DHT22;32787;53.316;8.670;2022-07-22T12:08:33;18.30;69.70
46816;DHT22;32787;53.316;8.670;2022-07-22T12:11:00;18.50;68.70
46816;DHT22;32787;53.316;8.670;2022-07-22T12:13:31;19.00;67.50
46816;DHT22;32787;53.316;8.670;2022-07-22T12:15:58;19.00;69.40
46816;DHT22;32787;53.316;8.670;2022-07-22T12:18:26;19.00;69.20
46816;DHT22;32787;53.316;8.670;2022-07-22T12:20:54;19.10;68.10
46816;DHT22;32787;53.316;8.670;2022-07-22T12:23:24;19.00;69.90
46816;DHT22;32787;53.316;8.670;2022-07-22T12:25:55;18.90;70.20
46816;DHT22;32787;53.316;8.670;2022-07-22T12:28:22;19.00;68.20
46816;DHT22;32787;53.316;8.670;2022-07-22T12:30:49;19.10;67.60
46816;DHT22;32787;53.316;8.670;2022-07-22T12:33:17;19.00;68.30
46816;DHT22;32787;53.316;8.670;2022-07-22T12:35:43;19.30;67.70
46816;DHT22;32787;53.316;8.670;2022-07-22T12:38:10;19.30;67.80
46816;DHT22;32787;53.316;8.670;2022-07-22T12:40:37;19.40;69.00
46816;DHT22;32787;53.316;8.670;2022-07-22T12:43:08;19.50;69.80
46816;DHT22;32787;53.316;8.670;2022-07-22T12:45:36;19.30;71.00
46816;DHT22;32787;53.316;8.670;2022-07-22T12:50:41;18.90;68.30
46816;DHT22;32787;53.316;8.670;2022-07-22T12:53:16;18.90;70.50
46816;DHT22;32787;53.316;8.670;2022-07-22T12:55:54;18.80;71.00
46816;DHT22;32787;53.316;8.670;2022-07-22T12:58:22;19.10;69.00
46816;DHT22;32787;53.316;8.670;2022-07-22T13:00:53;19.10;68.70
46816;DHT22;32787;53.316;8.670;2022-07-22T13:03:20;19.50;69.00
46816;DHT22;32787;53.316;8.670;2022-07-22T13:05:49;19.40;69.00
46816;DHT22;32787;53.316;8.670;2022-07-22T13:08:15;19.50;69.80
46816;DHT22;32787;53.316;8.670;2022-07-22T13:10:40;19.60;68.50
46816;DHT22;32787;53.316;8.670;2022-07-22T13:13:06;19.40;69.20
46816;DHT22;32787;53.316;8.670;2022-07-22T13:15:32;19.10;67.60
46816;DHT22;32787;53.316;8.670;2022-07-22T13:17:58;18.70;68.90
46816;DHT22;32787;53.316;8.670;2022-07-22T13:20:23;18.60;70.20
46816;DHT22;32787;53.316;8.670;2022-07-22T13:22:49;18.50;72.70
46816;DHT22;32787;53.316;8.670;2022-07-22T13:25:15;18.90;71.60
46816;DHT22;32787;53.316;8.670;2022-07-22T13:27:40;18.80;72.20
46816;DHT22;32787;53.316;8.670;2022-07-22T13:30:07;18.70;72.60
46816;DHT22;32787;53.316;8.670;2022-07-22T13:32:33;18.60;70.70
46816;DHT22;32787;53.316;8.670;2022-07-22T13:34:59;18.40;70.60
46816;DHT22;32787;53.316;8.670;2022-07-22T13:37:25;18.60;73.30
46816;DHT22;32787;53.316;8.670;2022-07-22T13:39:50;18.40;71.80
46816;DHT22;32787;53.316;8.670;2022-07-22T13:42:17;18.40;71.60
46816;DHT22;32787;53.316;8.670;2022-07-22T13:44:46;18.30;70.80
46816;DHT22;32787;53.316;8.670;2022-07-22T13:47:12;18.30;72.30
46816;DHT22;32787;53.316;8.670;2022-07-22T13:49:38;18.30;72.80
46816;DHT22;32787;53.316;8.670;2022-07-22T13:52:04;18.30;72.60
46816;DHT22;32787;53.316;8.670;2022-07-22T13:54:30;18.40;72.40
46816;DHT22;32787;53.316;8.670;2022-07-22T13:56:56;18.40;73.10
46816;DHT22;32787;53.316;8.670;2022-07-22T13:59:23;18.30;73.30
46816;DHT22;32787;53.316;8.670;2022-07-22T14:01:48;18.20;73.00
46816;DHT22;32787;53.316;8.670;2022-07-22T14:04:14;18.20;73.30
46816;DHT22;32787;53.316;8.670;2022-07-22T14:06:40;18.20;74.60
46816;DHT22;32787;53.316;8.670;2022-07-22T14:09:05;18.10;74.70
46816;DHT22;32787;53.316;8.670;2022-07-22T14:11:31;18.00;73.50
46816;DHT22;32787;53.316;8.670;2022-07-22T14:13:57;17.90;74.10
46816;DHT22;32787;53.316;8.670;2022-07-22T14:16:22;17.90;73.50
46816;DHT22;32787;53.316;8.670;2022-07-22T14:19:14;17.80;73.20
46816;DHT22;32787;53.316;8.670;2022-07-22T14:21:43;17.90;74.60
46816;DHT22;32787;53.316;8.670;2022-07-22T14:24:09;17.90;73.30
46816;DHT22;32787;53.316;8.670;2022-07-22T14:26:36;18.00;74.40
46816;DHT22;32787;53.316;8.670;2022-07-22T14:29:03;18.10;74.30
46816;DHT22;32787;53.316;8.670;2022-07-22T14:31:28;18.10;74.00
46816;DHT22;32787;53.316;8.670;2022-07-22T14:33:55;18.30;73.40
46816;DHT22;32787;53.316;8.670;2022-07-22T14:36:20;18.30;74.50
46816;DHT22;32787;53.316;8.670;2022-07-22T14:38:46;18.50;72.80
46816;DHT22;32787;53.316;8.670;2022-07-22T14:41:12;18.40;72.90
46816;DHT22;32787;53.316;8.670;2022-07-22T14:43:38;18.50;72.10
46816;DHT22;32787;53.316;8.670;2022-07-22T14:46:04;18.40;72.50
46816;DHT22;32787;53.316;8.670;2022-07-22T14:48:33;18.60;72.80
46816;DHT22;32787;53.316;8.670;2022-07-22T14:50:58;18.50;72.70
46816;DHT22;32787;53.316;8.670;2022-07-22T14:53:24;18.30;72.30
46816;DHT22;32787;53.316;8.670;2022-07-22T14:55:50;18.30;73.20
46816;DHT22;32787;53.316;8.670;2022-07-22T14:58:16;18.50;73.60
46816;DHT22;32787;53.316;8.670;2022-07-22T15:00:41;18.40;73.50
46816;DHT22;32787;53.316;8.670;2022-07-22T15:03:07;18.20;74.60
46816;DHT22;32787;53.316;8.670;2022-07-22T15:05:32;18.30;76.10
46816;DHT22;32787;53.316;8.670;2022-07-22T15:07:58;18.40;74.50
46816;DHT22;32787;53.316;8.670;2022-07-22T15:10:24;18.30;75.50
46816;DHT22;32787;53.316;8.670;2022-07-22T15:12:49;18.30;76.80
46816;DHT22;32787;53.316;8.670;2022-07-22T15:15:15;18.30;76.90
46816;DHT22;32787;53.316;8.670;2022-07-22T15:17:41;18.30;76.20
46816;DHT22;32787;53.316;8.670;2022-07-22T15:20:09;18.30;76.10
46816;DHT22;32787;53.316;8.670;2022-07-22T15:22:35;18.30;75.50
46816;DHT22;32787;53.316;8.670;2022-07-22T15:25:01;18.30;76.50
46816;DHT22;32787;53.316;8.670;2022-07-22T15:27:27;18.30;76.60
46816;DHT22;32787;53.316;8.670;2022-07-22T15:29:52;18.30;75.70
46816;DHT22;32787;53.316;8.670;2022-07-22T15:32:18;18.30;74.80
46816;DHT22;32787;53.316;8.670;2022-07-22T15:34:44;18.10;73.80
46816;DHT22;32787;53.316;8.670;2022-07-22T15:37:10;18.20;74.40
46816;DHT22;32787;53.316;8.670;2022-07-22T15:39:35;18.20;75.70
46816;DHT22;32787;53.316;8.670;2022-07-22T15:42:03;18.10;75.30
46816;DHT22;32787;53.316;8.670;2022-07-22T15:44:29;18.10;76.00